sensor_id;sensor_type;location;lat;lon;timestamp;P1;durP1;ratioP1;P2;durP2;ratioP2
20729;SDS011;10526;50.850;12.928;2023-11-19T00:03:37;6.07;;;3.03;;
20729;SDS011;10526;50.850;12.928;2023-11-19T00:07:59;6.07;;;2.85;;
20729;SDS011;10526;50.850;12.928;2023-11-19T00:12:23;4.55;;;2.22;;
20729;SDS011;10526;50.850;12.928;2023-11-19T00:16:45;4.68;;;2.38;;
20729;SDS011;10526;50.850;12.928;2023-11-19T00:21:07;5.07;;;2.50;;
20729;SDS011;10526;50.850;12.928;2023-11-19T00:25:31;4.68;;;2.42;;
20729;SDS011;10526;50.850;12.928;2023-11-19T00:29:54;4.70;;;2.30;;
20729;SDS011;10526;50.850;12.928;2023-11-19T00:34:16;3.72;;;2.00;;
20729;SDS011;10526;50.850;12.928;2023-11-19T00:38:42;2.63;;;1.90;;
20729;SDS011;10526;50.850;12.928;2023-11-19T00:43:04;4.72;;;2.30;;
20729;SDS011;10526;50.850;12.928;2023-11-19T00:47:26;5.22;;;2.50;;
20729;SDS011;10526;50.850;12.928;2023-11-19T00:51:49;4.57;;;2.17;;
20729;SDS011;10526;50.850;12.928;2023-11-19T00:56:11;4.00;;;2.10;;
20729;SDS011;10526;50.850;12.928;2023-11-19T01:00:33;4.75;;;2.05;;
20729;SDS011;10526;50.850;12.928;2023-11-19T01:04:56;3.97;;;1.83;;
20729;SDS011;10526;50.850;12.928;2023-11-19T01:09:18;2.63;;;1.55;;
20729;SDS011;10526;50.850;12.928;2023-11-19T01:13:40;3.03;;;1.70;;
20729;SDS011;10526;50.850;12.928;2023-11-19T01:18:03;2.53;;;1.52;;
20729;SDS011;10526;50.850;12.928;2023-11-19T01:22:26;2.30;;;1.50;;
20729;SDS011;10526;50.850;12.928;2023-11-19T01:26:48;4.18;;;1.38;;
20729;SDS011;10526;50.850;12.928;2023-11-19T01:31:11;1.95;;;1.40;;
20729;SDS011;10526;50.850;12.928;2023-11-19T01:35:36;2.22;;;1.38;;
20729;SDS011;10526;50.850;12.928;2023-11-19T01:39:58;0.93;;;0.93;;
20729;SDS011;10526;50.850;12.928;2023-11-19T01:44:20;1.25;;;1.00;;
20729;SDS011;10526;50.850;12.928;2023-11-19T01:48:44;0.90;;;0.90;;
20729;SDS011;10526;50.850;12.928;2023-11-19T01:53:08;1.67;;;0.80;;
20729;SDS011;10526;50.850;12.928;2023-11-19T01:57:31;1.20;;;1.10;;
20729;SDS011;10526;50.850;12.928;2023-11-19T02:02:00;0.88;;;0.88;;
20729;SDS011;10526;50.850;12.928;2023-11-19T02:06:23;0.90;;;0.90;;
20729;SDS011;10526;50.850;12.928;2023-11-19T02:10:47;0.98;;;0.93;;
20729;SDS011;10526;50.850;12.928;2023-11-19T02:15:10;0.88;;;0.88;;
20729;SDS011;10526;50.850;12.928;2023-11-19T02:19:32;1.08;;;0.90;;
20729;SDS011;10526;50.850;12.928;2023-11-19T02:23:55;0.85;;;0.85;;
20729;SDS011;10526;50.850;12.928;2023-11-19T02:28:29;0.90;;;0.90;;
20729;SDS011;10526;50.850;12.928;2023-11-19T02:32:52;0.65;;;0.65;;
20729;SDS011;10526;50.850;12.928;2023-11-19T02:37:18;1.92;;;1.00;;
20729;SDS011;10526;50.850;12.928;2023-11-19T02:41:41;1.15;;;1.05;;
20729;SDS011;10526;50.850;12.928;2023-11-19T02:46:04;0.80;;;0.80;;
20729;SDS011;10526;50.850;12.928;2023-11-19T02:50:33;4.00;;;0.90;;
20729;SDS011;10526;50.850;12.928;2023-11-19T02:54:55;1.92;;;1.00;;
20729;SDS011;10526;50.850;12.928;2023-11-19T02:59:18;7.75;;;1.23;;
20729;SDS011;10526;50.850;12.928;2023-11-19T03:03:49;0.70;;;0.70;;
20729;SDS011;10526;50.850;12.928;2023-11-19T03:08:16;1.10;;;1.00;;
20729;SDS011;10526;50.850;12.928;2023-11-19T03:12:42;1.20;;;0.88;;
20729;SDS011;10526;50.850;12.928;2023-11-19T03:17:06;0.73;;;0.73;;
20729;SDS011;10526;50.850;12.928;2023-11-19T03:21:32;1.02;;;0.88;;
20729;SDS011;10526;50.850;12.928;2023-11-19T03:25:54;0.80;;;0.80;;
20729;SDS011;10526;50.850;12.928;2023-11-19T03:30:16;1.50;;;1.10;;
20729;SDS011;10526;50.850;12.928;2023-11-19T03:34:39;1.02;;;0.90;;
20729;SDS011;10526;50.850;12.928;2023-11-19T03:39:02;1.48;;;1.30;;
20729;SDS011;10526;50.850;12.928;2023-11-19T03:43:24;1.42;;;0.90;;
20729;SDS011;10526;50.850;12.928;2023-11-19T03:47:46;0.95;;;0.95;;
20729;SDS011;10526;50.850;12.928;2023-11-19T03:52:11;0.73;;;0.73;;
20729;SDS011;10526;50.850;12.928;2023-11-19T03:56:41;6.25;;;1.60;;
20729;SDS011;10526;50.850;12.928;2023-11-19T04:01:10;0.82;;;0.82;;
20729;SDS011;10526;50.850;12.928;2023-11-19T04:05:35;1.05;;;0.95;;
20729;SDS011;10526;50.850;12.928;2023-11-19T04:09:57;1.67;;;0.80;;
20729;SDS011;10526;50.850;12.928;2023-11-19T04:14:19;0.85;;;0.77;;
20729;SDS011;10526;50.850;12.928;2023-11-19T04:18:44;1.33;;;0.73;;
20729;SDS011;10526;50.850;12.928;2023-11-19T04:23:06;1.48;;;0.70;;
20729;SDS011;10526;50.850;12.928;2023-11-19T04:27:29;0.60;;;0.60;;
20729;SDS011;10526;50.850;12.928;2023-11-19T04:31:52;0.60;;;0.60;;
20729;SDS011;10526;50.850;12.928;2023-11-19T04:36:18;2.28;;;0.65;;
20729;SDS011;10526;50.850;12.928;2023-11-19T04:40:41;0.60;;;0.60;;
20729;SDS011;10526;50.850;12.928;2023-11-19T04:45:04;0.50;;;0.50;;
20729;SDS011;10526;50.850;12.928;2023-11-19T04:49:28;0.45;;;0.45;;
20729;SDS011;10526;50.850;12.928;2023-11-19T04:53:52;2.75;;;0.80;;
20729;SDS011;10526;50.850;12.928;2023-11-19T04:58:14;0.60;;;0.60;;
20729;SDS011;10526;50.850;12.928;2023-11-19T05:02:36;0.75;;;0.70;;
20729;SDS011;10526;50.850;12.928;2023-11-19T05:06:59;1.23;;;0.50;;
20729;SDS011;10526;50.850;12.928;2023-11-19T05:11:22;1.75;;;0.82;;
20729;SDS011;10526;50.850;12.928;2023-11-19T05:15:44;2.88;;;0.98;;
20729;SDS011;10526;50.850;12.928;2023-11-19T05:20:06;1.20;;;0.80;;
20729;SDS011;10526;50.850;12.928;2023-11-19T05:24:35;0.40;;;0.40;;
20729;SDS011;10526;50.850;12.928;2023-11-19T05:28:57;0.90;;;0.82;;
20729;SDS011;10526;50.850;12.928;2023-11-19T05:33:21;0.68;;;0.68;;
20729;SDS011;10526;50.850;12.928;2023-11-19T05:37:43;0.63;;;0.63;;
20729;SDS011;10526;50.850;12.928;2023-11-19T05:42:05;0.63;;;0.63;;
20729;SDS011;10526;50.850;12.928;2023-11-19T05:46:27;0.50;;;0.50;;
20729;SDS011;10526;50.850;12.928;2023-11-19T05:50:49;0.75;;;0.70;;
20729;SDS011;10526;50.850;12.928;2023-11-19T05:55:12;1.05;;;0.90;;
20729;SDS011;10526;50.850;12.928;2023-11-19T05:59:35;1.02;;;0.60;;
20729;SDS011;10526;50.850;12.928;2023-11-19T06:03:58;1.27;;;0.90;;
20729;SDS011;10526;50.850;12.928;2023-11-19T06:08:22;0.77;;;0.73;;
20729;SDS011;10526;50.850;12.928;2023-11-19T06:12:44;1.92;;;0.70;;
20729;SDS011;10526;50.850;12.928;2023-11-19T06:17:07;1.65;;;0.93;;
20729;SDS011;10526;50.850;12.928;2023-11-19T06:21:33;0.70;;;0.70;;
20729;SDS011;10526;50.850;12.928;2023-11-19T06:25:57;0.73;;;0.73;;
20729;SDS011;10526;50.850;12.928;2023-11-19T06:30:19;3.45;;;0.93;;
20729;SDS011;10526;50.850;12.928;2023-11-19T06:34:44;0.55;;;0.55;;
20729;SDS011;10526;50.850;12.928;2023-11-19T06:39:09;0.70;;;0.70;;
20729;SDS011;10526;50.850;12.928;2023-11-19T06:43:32;0.50;;;0.50;;
20729;SDS011;10526;50.850;12.928;2023-11-19T06:47:58;3.10;;;0.70;;
20729;SDS011;10526;50.850;12.928;2023-11-19T06:52:24;0.90;;;0.60;;
20729;SDS011;10526;50.850;12.928;2023-11-19T06:56:46;0.47;;;0.47;;
20729;SDS011;10526;50.850;12.928;2023-11-19T07:01:13;0.45;;;0.35;;
20729;SDS011;10526;50.850;12.928;2023-11-19T07:05:39;2.03;;;0.85;;
20729;SDS011;10526;50.850;12.928;2023-11-19T07:10:01;0.50;;;0.50;;
20729;SDS011;10526;50.850;12.928;2023-11-19T07:14:25;0.60;;;0.60;;
20729;SDS011;10526;50.850;12.928;2023-11-19T07:18:48;1.48;;;0.90;;
20729;SDS011;10526;50.850;12.928;2023-11-19T07:23:11;1.10;;;0.60;;
20729;SDS011;10526;50.850;12.928;2023-11-19T07:27:33;1.15;;;0.90;;
20729;SDS011;10526;50.850;12.928;2023-11-19T07:31:55;2.00;;;1.02;;
20729;SDS011;10526;50.850;12.928;2023-11-19T07:36:18;1.98;;;1.00;;
20729;SDS011;10526;50.850;12.928;2023-11-19T07:40:43;0.85;;;0.73;;
20729;SDS011;10526;50.850;12.928;2023-11-19T07:45:17;1.10;;;0.80;;
20729;SDS011;10526;50.850;12.928;2023-11-19T07:49:42;1.38;;;0.90;;
20729;SDS011;10526;50.850;12.928;2023-11-19T07:54:06;1.27;;;0.95;;
20729;SDS011;10526;50.850;12.928;2023-11-19T07:58:28;2.72;;;1.23;;
20729;SDS011;10526;50.850;12.928;2023-11-19T08:02:50;1.48;;;1.30;;
20729;SDS011;10526;50.850;12.928;2023-11-19T08:07:13;2.65;;;0.93;;
20729;SDS011;10526;50.850;12.928;2023-11-19T08:11:35;1.42;;;0.80;;
20729;SDS011;10526;50.850;12.928;2023-11-19T08:15:57;1.38;;;0.82;;
20729;SDS011;10526;50.850;12.928;2023-11-19T08:20:19;1.33;;;0.80;;
20729;SDS011;10526;50.850;12.928;2023-11-19T08:24:42;2.92;;;1.10;;
20729;SDS011;10526;50.850;12.928;2023-11-19T08:29:05;5.50;;;1.10;;
20729;SDS011;10526;50.850;12.928;2023-11-19T08:33:27;1.92;;;1.10;;
20729;SDS011;10526;50.850;12.928;2023-11-19T08:37:49;4.45;;;1.10;;
20729;SDS011;10526;50.850;12.928;2023-11-19T08:42:12;1.90;;;0.93;;
20729;SDS011;10526;50.850;12.928;2023-11-19T08:46:34;5.18;;;1.40;;
20729;SDS011;10526;50.850;12.928;2023-11-19T08:50:56;6.68;;;1.25;;
20729;SDS011;10526;50.850;12.928;2023-11-19T08:55:19;2.42;;;0.85;;
20729;SDS011;10526;50.850;12.928;2023-11-19T08:59:41;6.72;;;1.35;;
20729;SDS011;10526;50.850;12.928;2023-11-19T09:04:03;3.70;;;1.40;;
20729;SDS011;10526;50.850;12.928;2023-11-19T09:08:27;1.80;;;1.00;;
20729;SDS011;10526;50.850;12.928;2023-11-19T09:12:50;4.60;;;1.20;;
20729;SDS011;10526;50.850;12.928;2023-11-19T09:17:12;1.60;;;1.00;;
20729;SDS011;10526;50.850;12.928;2023-11-19T09:21:34;4.35;;;1.55;;
20729;SDS011;10526;50.850;12.928;2023-11-19T09:25:59;3.03;;;1.08;;
20729;SDS011;10526;50.850;12.928;2023-11-19T09:30:21;1.02;;;0.73;;
20729;SDS011;10526;50.850;12.928;2023-11-19T09:34:44;4.43;;;1.48;;
20729;SDS011;10526;50.850;12.928;2023-11-19T09:39:12;1.83;;;1.08;;
20729;SDS011;10526;50.850;12.928;2023-11-19T09:43:39;1.23;;;1.02;;
20729;SDS011;10526;50.850;12.928;2023-11-19T09:48:04;2.42;;;1.20;;
20729;SDS011;10526;50.850;12.928;2023-11-19T09:52:28;3.38;;;1.50;;
20729;SDS011;10526;50.850;12.928;2023-11-19T09:56:51;8.07;;;1.90;;
20729;SDS011;10526;50.850;12.928;2023-11-19T10:01:13;6.25;;;2.47;;
20729;SDS011;10526;50.850;12.928;2023-11-19T10:05:39;5.40;;;2.00;;
20729;SDS011;10526;50.850;12.928;2023-11-19T10:10:02;4.63;;;1.50;;
20729;SDS011;10526;50.850;12.928;2023-11-19T10:14:25;2.42;;;1.27;;
20729;SDS011;10526;50.850;12.928;2023-11-19T10:18:49;4.63;;;1.67;;
20729;SDS011;10526;50.850;12.928;2023-11-19T10:23:12;7.45;;;2.42;;
20729;SDS011;10526;50.850;12.928;2023-11-19T10:27:34;4.20;;;1.92;;
20729;SDS011;10526;50.850;12.928;2023-11-19T10:31:56;4.45;;;1.75;;
20729;SDS011;10526;50.850;12.928;2023-11-19T10:36:39;4.72;;;2.05;;
20729;SDS011;10526;50.850;12.928;2023-11-19T10:41:02;6.00;;;1.98;;
20729;SDS011;10526;50.850;12.928;2023-11-19T10:45:26;5.05;;;1.52;;
20729;SDS011;10526;50.850;12.928;2023-11-19T10:49:48;5.57;;;1.98;;
20729;SDS011;10526;50.850;12.928;2023-11-19T10:54:11;3.97;;;1.60;;
20729;SDS011;10526;50.850;12.928;2023-11-19T10:58:36;7.30;;;2.00;;
20729;SDS011;10526;50.850;12.928;2023-11-19T11:03:05;9.02;;;1.80;;
20729;SDS011;10526;50.850;12.928;2023-11-19T11:07:36;6.28;;;1.95;;
20729;SDS011;10526;50.850;12.928;2023-11-19T11:12:02;5.93;;;1.45;;
20729;SDS011;10526;50.850;12.928;2023-11-19T11:16:28;5.82;;;1.55;;
20729;SDS011;10526;50.850;12.928;2023-11-19T11:20:55;7.55;;;2.13;;
20729;SDS011;10526;50.850;12.928;2023-11-19T11:30:35;8.63;;;1.80;;
20729;SDS011;10526;50.850;12.928;2023-11-19T11:40:13;10.63;;;2.20;;
20729;SDS011;10526;50.850;12.928;2023-11-19T11:49:31;11.27;;;2.45;;
20729;SDS011;10526;50.850;12.928;2023-11-19T11:53:54;12.73;;;2.30;;
20729;SDS011;10526;50.850;12.928;2023-11-19T11:58:20;10.15;;;2.60;;
20729;SDS011;10526;50.850;12.928;2023-11-19T12:02:47;12.40;;;3.35;;
20729;SDS011;10526;50.850;12.928;2023-11-19T12:11:38;10.25;;;1.98;;
20729;SDS011;10526;50.850;12.928;2023-11-19T12:16:08;12.00;;;2.42;;
20729;SDS011;10526;50.850;12.928;2023-11-19T12:20:31;11.55;;;2.45;;
20729;SDS011;10526;50.850;12.928;2023-11-19T12:24:58;13.73;;;2.75;;
20729;SDS011;10526;50.850;12.928;2023-11-19T12:29:20;10.85;;;2.80;;
20729;SDS011;10526;50.850;12.928;2023-11-19T12:33:43;13.00;;;2.85;;
20729;SDS011;10526;50.850;12.928;2023-11-19T12:38:06;17.00;;;3.70;;
20729;SDS011;10526;50.850;12.928;2023-11-19T12:42:35;14.95;;;2.63;;
20729;SDS011;10526;50.850;12.928;2023-11-19T12:46:59;16.30;;;3.20;;
20729;SDS011;10526;50.850;12.928;2023-11-19T12:51:30;11.05;;;2.78;;
20729;SDS011;10526;50.850;12.928;2023-11-19T12:55:54;10.98;;;2.65;;
20729;SDS011;10526;50.850;12.928;2023-11-19T13:00:21;10.30;;;2.55;;
20729;SDS011;10526;50.850;12.928;2023-11-19T13:04:47;12.98;;;2.97;;
20729;SDS011;10526;50.850;12.928;2023-11-19T13:09:12;13.27;;;2.72;;
20729;SDS011;10526;50.850;12.928;2023-11-19T13:13:54;13.38;;;2.33;;
20729;SDS011;10526;50.850;12.928;2023-11-19T13:18:30;9.93;;;2.70;;
20729;SDS011;10526;50.850;12.928;2023-11-19T13:22:57;11.70;;;2.95;;
20729;SDS011;10526;50.850;12.928;2023-11-19T13:27:21;15.38;;;3.40;;
20729;SDS011;10526;50.850;12.928;2023-11-19T13:31:43;15.00;;;3.47;;
20729;SDS011;10526;50.850;12.928;2023-11-19T13:36:05;11.95;;;2.47;;
20729;SDS011;10526;50.850;12.928;2023-11-19T13:40:29;13.07;;;2.85;;
20729;SDS011;10526;50.850;12.928;2023-11-19T13:44:51;15.82;;;3.30;;
20729;SDS011;10526;50.850;12.928;2023-11-19T13:49:13;15.77;;;3.00;;
20729;SDS011;10526;50.850;12.928;2023-11-19T13:53:36;14.50;;;2.75;;
20729;SDS011;10526;50.850;12.928;2023-11-19T13:58:01;14.98;;;2.58;;
20729;SDS011;10526;50.850;12.928;2023-11-19T14:02:24;12.40;;;2.97;;
20729;SDS011;10526;50.850;12.928;2023-11-19T14:06:46;14.57;;;3.50;;
20729;SDS011;10526;50.850;12.928;2023-11-19T14:11:09;15.10;;;2.47;;
20729;SDS011;10526;50.850;12.928;2023-11-19T14:15:32;14.48;;;3.53;;
20729;SDS011;10526;50.850;12.928;2023-11-19T14:19:57;13.90;;;3.00;;
20729;SDS011;10526;50.850;12.928;2023-11-19T14:24:19;16.33;;;2.97;;
20729;SDS011;10526;50.850;12.928;2023-11-19T14:28:43;18.20;;;2.60;;
20729;SDS011;10526;50.850;12.928;2023-11-19T14:33:09;12.60;;;2.75;;
20729;SDS011;10526;50.850;12.928;2023-11-19T14:37:31;14.13;;;2.60;;
20729;SDS011;10526;50.850;12.928;2023-11-19T14:41:53;12.93;;;3.05;;
20729;SDS011;10526;50.850;12.928;2023-11-19T14:46:19;15.70;;;3.47;;
20729;SDS011;10526;50.850;12.928;2023-11-19T14:50:41;15.48;;;4.03;;
20729;SDS011;10526;50.850;12.928;2023-11-19T14:55:07;9.52;;;2.70;;
20729;SDS011;10526;50.850;12.928;2023-11-19T14:59:31;13.80;;;2.65;;
20729;SDS011;10526;50.850;12.928;2023-11-19T15:03:55;12.23;;;3.25;;
20729;SDS011;10526;50.850;12.928;2023-11-19T15:08:22;14.70;;;2.90;;
20729;SDS011;10526;50.850;12.928;2023-11-19T15:12:45;11.27;;;2.72;;
20729;SDS011;10526;50.850;12.928;2023-11-19T15:17:08;12.75;;;2.75;;
20729;SDS011;10526;50.850;12.928;2023-11-19T15:21:30;12.68;;;2.85;;
20729;SDS011;10526;50.850;12.928;2023-11-19T15:25:54;15.10;;;3.30;;
20729;SDS011;10526;50.850;12.928;2023-11-19T15:30:17;18.58;;;3.67;;
20729;SDS011;10526;50.850;12.928;2023-11-19T15:34:41;11.32;;;3.22;;
20729;SDS011;10526;50.850;12.928;2023-11-19T15:39:04;12.65;;;3.15;;
20729;SDS011;10526;50.850;12.928;2023-11-19T15:43:27;15.57;;;4.25;;
20729;SDS011;10526;50.850;12.928;2023-11-19T15:47:50;14.85;;;3.92;;
20729;SDS011;10526;50.850;12.928;2023-11-19T15:52:13;14.05;;;3.50;;
20729;SDS011;10526;50.850;12.928;2023-11-19T15:56:37;13.20;;;2.95;;
20729;SDS011;10526;50.850;12.928;2023-11-19T16:00:59;14.73;;;3.60;;
20729;SDS011;10526;50.850;12.928;2023-11-19T16:05:22;11.90;;;2.88;;
20729;SDS011;10526;50.850;12.928;2023-11-19T16:09:48;17.33;;;3.25;;
20729;SDS011;10526;50.850;12.928;2023-11-19T16:14:10;15.07;;;3.72;;
20729;SDS011;10526;50.850;12.928;2023-11-19T16:18:32;16.42;;;4.20;;
20729;SDS011;10526;50.850;12.928;2023-11-19T16:22:54;16.45;;;4.07;;
20729;SDS011;10526;50.850;12.928;2023-11-19T16:27:18;16.48;;;4.97;;
20729;SDS011;10526;50.850;12.928;2023-11-19T16:31:43;17.58;;;4.15;;
20729;SDS011;10526;50.850;12.928;2023-11-19T16:36:05;19.52;;;4.28;;
20729;SDS011;10526;50.850;12.928;2023-11-19T16:40:31;15.63;;;4.70;;
20729;SDS011;10526;50.850;12.928;2023-11-19T16:44:53;21.50;;;5.93;;
20729;SDS011;10526;50.850;12.928;2023-11-19T16:49:15;14.02;;;4.30;;
20729;SDS011;10526;50.850;12.928;2023-11-19T16:53:37;18.52;;;4.22;;
20729;SDS011;10526;50.850;12.928;2023-11-19T16:58:00;18.08;;;4.88;;
20729;SDS011;10526;50.850;12.928;2023-11-19T17:02:23;17.40;;;5.78;;
20729;SDS011;10526;50.850;12.928;2023-11-19T17:06:50;17.88;;;4.80;;
20729;SDS011;10526;50.850;12.928;2023-11-19T17:11:12;16.65;;;4.25;;
20729;SDS011;10526;50.850;12.928;2023-11-19T17:15:34;24.35;;;5.28;;
20729;SDS011;10526;50.850;12.928;2023-11-19T17:19:56;17.30;;;4.30;;
20729;SDS011;10526;50.850;12.928;2023-11-19T17:24:19;15.20;;;4.45;;
20729;SDS011;10526;50.850;12.928;2023-11-19T17:28:41;21.10;;;4.22;;
20729;SDS011;10526;50.850;12.928;2023-11-19T17:33:03;14.02;;;4.13;;
20729;SDS011;10526;50.850;12.928;2023-11-19T17:37:26;13.70;;;3.55;;
20729;SDS011;10526;50.850;12.928;2023-11-19T17:41:49;17.13;;;3.67;;
20729;SDS011;10526;50.850;12.928;2023-11-19T17:46:13;18.95;;;4.35;;
20729;SDS011;10526;50.850;12.928;2023-11-19T17:50:37;40.47;;;12.10;;
20729;SDS011;10526;50.850;12.928;2023-11-19T17:55:01;20.60;;;5.70;;
20729;SDS011;10526;50.850;12.928;2023-11-19T17:59:27;22.75;;;4.57;;
20729;SDS011;10526;50.850;12.928;2023-11-19T18:03:52;14.43;;;3.97;;
20729;SDS011;10526;50.850;12.928;2023-11-19T18:08:14;14.25;;;2.90;;
20729;SDS011;10526;50.850;12.928;2023-11-19T18:12:39;14.85;;;3.58;;
20729;SDS011;10526;50.850;12.928;2023-11-19T18:17:02;15.23;;;2.92;;
20729;SDS011;10526;50.850;12.928;2023-11-19T18:21:24;15.48;;;3.67;;
20729;SDS011;10526;50.850;12.928;2023-11-19T18:25:46;18.33;;;3.35;;
20729;SDS011;10526;50.850;12.928;2023-11-19T18:30:10;15.73;;;3.00;;
20729;SDS011;10526;50.850;12.928;2023-11-19T18:34:34;14.20;;;3.20;;
20729;SDS011;10526;50.850;12.928;2023-11-19T18:38:57;18.02;;;3.33;;
20729;SDS011;10526;50.850;12.928;2023-11-19T18:43:20;15.18;;;3.17;;
20729;SDS011;10526;50.850;12.928;2023-11-19T18:47:42;25.65;;;4.22;;
20729;SDS011;10526;50.850;12.928;2023-11-19T18:52:04;22.42;;;4.55;;
20729;SDS011;10526;50.850;12.928;2023-11-19T18:56:28;17.40;;;3.47;;
20729;SDS011;10526;50.850;12.928;2023-11-19T19:00:52;20.05;;;4.03;;
20729;SDS011;10526;50.850;12.928;2023-11-19T19:05:15;20.70;;;5.05;;
20729;SDS011;10526;50.850;12.928;2023-11-19T19:09:38;15.18;;;3.88;;
20729;SDS011;10526;50.850;12.928;2023-11-19T19:14:00;18.20;;;4.00;;
20729;SDS011;10526;50.850;12.928;2023-11-19T19:18:24;15.70;;;3.78;;
20729;SDS011;10526;50.850;12.928;2023-11-19T19:22:46;18.30;;;4.45;;
20729;SDS011;10526;50.850;12.928;2023-11-19T19:27:09;17.70;;;4.70;;
20729;SDS011;10526;50.850;12.928;2023-11-19T19:31:31;12.10;;;2.83;;
20729;SDS011;10526;50.850;12.928;2023-11-19T19:35:54;16.55;;;3.83;;
20729;SDS011;10526;50.850;12.928;2023-11-19T19:40:15;19.88;;;3.35;;
20729;SDS011;10526;50.850;12.928;2023-11-19T19:44:41;14.85;;;3.30;;
20729;SDS011;10526;50.850;12.928;2023-11-19T19:49:06;16.08;;;3.20;;
20729;SDS011;10526;50.850;12.928;2023-11-19T19:53:29;13.23;;;3.05;;
20729;SDS011;10526;50.850;12.928;2023-11-19T19:57:51;10.00;;;3.03;;
20729;SDS011;10526;50.850;12.928;2023-11-19T20:02:13;16.63;;;3.67;;
20729;SDS011;10526;50.850;12.928;2023-11-19T20:06:36;15.07;;;3.28;;
20729;SDS011;10526;50.850;12.928;2023-11-19T20:11:00;20.05;;;3.88;;
20729;SDS011;10526;50.850;12.928;2023-11-19T20:15:22;12.98;;;3.17;;
20729;SDS011;10526;50.850;12.928;2023-11-19T20:19:45;13.38;;;2.78;;
20729;SDS011;10526;50.850;12.928;2023-11-19T20:24:07;10.70;;;2.30;;
20729;SDS011;10526;50.850;12.928;2023-11-19T20:28:30;13.57;;;2.95;;
20729;SDS011;10526;50.850;12.928;2023-11-19T20:32:52;11.77;;;2.20;;
20729;SDS011;10526;50.850;12.928;2023-11-19T20:37:16;10.05;;;2.38;;
20729;SDS011;10526;50.850;12.928;2023-11-19T20:41:38;8.60;;;2.22;;
20729;SDS011;10526;50.850;12.928;2023-11-19T20:46:00;10.23;;;2.50;;
20729;SDS011;10526;50.850;12.928;2023-11-19T20:50:25;15.04;;;2.67;;
20729;SDS011;10526;50.850;12.928;2023-11-19T20:54:49;9.50;;;2.13;;
20729;SDS011;10526;50.850;12.928;2023-11-19T20:59:11;11.95;;;2.80;;
20729;SDS011;10526;50.850;12.928;2023-11-19T21:03:37;10.32;;;2.50;;
20729;SDS011;10526;50.850;12.928;2023-11-19T21:08:00;10.52;;;2.60;;
20729;SDS011;10526;50.850;12.928;2023-11-19T21:12:22;12.02;;;2.50;;
20729;SDS011;10526;50.850;12.928;2023-11-19T21:16:44;19.98;;;3.40;;
20729;SDS011;10526;50.850;12.928;2023-11-19T21:21:06;17.25;;;3.55;;
20729;SDS011;10526;50.850;12.928;2023-11-19T21:25:29;14.40;;;3.13;;
20729;SDS011;10526;50.850;12.928;2023-11-19T21:29:51;13.60;;;3.10;;
20729;SDS011;10526;50.850;12.928;2023-11-19T21:34:13;19.60;;;3.05;;
20729;SDS011;10526;50.850;12.928;2023-11-19T21:38:35;13.00;;;2.70;;
20729;SDS011;10526;50.850;12.928;2023-11-19T21:42:57;14.45;;;2.50;;
20729;SDS011;10526;50.850;12.928;2023-11-19T21:47:21;12.82;;;2.70;;
20729;SDS011;10526;50.850;12.928;2023-11-19T21:51:46;11.70;;;3.15;;
20729;SDS011;10526;50.850;12.928;2023-11-19T21:56:08;9.60;;;2.70;;
20729;SDS011;10526;50.850;12.928;2023-11-19T22:00:33;11.00;;;2.65;;
20729;SDS011;10526;50.850;12.928;2023-11-19T22:04:56;17.08;;;3.25;;
20729;SDS011;10526;50.850;12.928;2023-11-19T22:09:18;14.38;;;2.88;;
20729;SDS011;10526;50.850;12.928;2023-11-19T22:13:39;10.77;;;2.58;;
20729;SDS011;10526;50.850;12.928;2023-11-19T22:18:02;13.10;;;2.65;;
20729;SDS011;10526;50.850;12.928;2023-11-19T22:22:24;9.90;;;2.42;;
20729;SDS011;10526;50.850;12.928;2023-11-19T22:26:46;14.38;;;3.00;;
20729;SDS011;10526;50.850;12.928;2023-11-19T22:31:08;14.65;;;2.22;;
20729;SDS011;10526;50.850;12.928;2023-11-19T22:35:30;13.80;;;2.40;;
20729;SDS011;10526;50.850;12.928;2023-11-19T22:39:52;11.27;;;2.70;;
20729;SDS011;10526;50.850;12.928;2023-11-19T22:44:15;12.13;;;2.70;;
20729;SDS011;10526;50.850;12.928;2023-11-19T22:48:36;12.73;;;3.50;;
20729;SDS011;10526;50.850;12.928;2023-11-19T22:52:59;13.65;;;2.63;;
20729;SDS011;10526;50.850;12.928;2023-11-19T22:57:21;14.95;;;3.05;;
20729;SDS011;10526;50.850;12.928;2023-11-19T23:01:43;11.52;;;2.70;;
20729;SDS011;10526;50.850;12.928;2023-11-19T23:06:09;13.38;;;3.17;;
20729;SDS011;10526;50.850;12.928;2023-11-19T23:10:31;14.30;;;2.50;;
20729;SDS011;10526;50.850;12.928;2023-11-19T23:14:54;22.30;;;3.53;;
20729;SDS011;10526;50.850;12.928;2023-11-19T23:19:20;15.02;;;3.03;;
20729;SDS011;10526;50.850;12.928;2023-11-19T23:23:42;12.43;;;2.78;;
20729;SDS011;10526;50.850;12.928;2023-11-19T23:28:04;14.60;;;2.80;;
20729;SDS011;10526;50.850;12.928;2023-11-19T23:32:27;20.67;;;2.75;;
20729;SDS011;10526;50.850;12.928;2023-11-19T23:36:50;12.88;;;2.65;;
20729;SDS011;10526;50.850;12.928;2023-11-19T23:41:12;16.70;;;2.75;;
20729;SDS011;10526;50.850;12.928;2023-11-19T23:45:34;13.00;;;2.80;;
20729;SDS011;10526;50.850;12.928;2023-11-19T23:49:56;23.13;;;3.10;;
20729;SDS011;10526;50.850;12.928;2023-11-19T23:54:19;18.10;;;2.85;;
20729;SDS011;10526;50.850;12.928;2023-11-19T23:58:41;12.50;;;3.17;;
